sensor_id;sensor_type;location;lat;lon;timestamp;P1;durP1;ratioP1;P2;durP2;ratioP2
25990;SDS011;13779;-33.886;151.198;2023-03-23T00:01:28;11.73;;;6.28;;
25990;SDS011;13779;-33.886;151.198;2023-03-23T00:03:57;13.57;;;6.90;;
25990;SDS011;13779;-33.886;151.198;2023-03-23T00:06:26;15.27;;;7.20;;
25990;SDS011;13779;-33.886;151.198;2023-03-23T00:08:59;12.85;;;6.53;;
25990;SDS011;13779;-33.886;151.198;2023-03-23T00:11:30;14.70;;;6.60;;
25990;SDS011;13779;-33.886;151.198;2023-03-23T00:14:00;13.98;;;7.38;;
25990;SDS011;13779;-33.886;151.198;2023-03-23T00:16:30;13.43;;;7.03;;
25990;SDS011;13779;-33.886;151.198;2023-03-23T00:19:07;11.35;;;6.97;;
25990;SDS011;13779;-33.886;151.198;2023-03-23T00:21:41;18.08;;;6.65;;
25990;SDS011;13779;-33.886;151.198;2023-03-23T00:24:14;10.27;;;6.03;;
25990;SDS011;13779;-33.886;151.198;2023-03-23T00:26:47;16.05;;;6.40;;
25990;SDS011;13779;-33.886;151.198;2023-03-23T00:29:21;10.15;;;6.20;;
25990;SDS011;13779;-33.886;151.198;2023-03-23T00:31:50;14.82;;;7.45;;
25990;SDS011;13779;-33.886;151.198;2023-03-23T00:34:20;13.88;;;7.38;;
25990;SDS011;13779;-33.886;151.198;2023-03-23T00:36:52;13.52;;;7.38;;
25990;SDS011;13779;-33.886;151.198;2023-03-23T00:39:24;11.52;;;6.55;;
25990;SDS011;13779;-33.886;151.198;2023-03-23T00:41:55;10.75;;;6.47;;
25990;SDS011;13779;-33.886;151.198;2023-03-23T00:44:31;16.17;;;6.72;;
25990;SDS011;13779;-33.886;151.198;2023-03-23T00:47:01;14.48;;;7.30;;
25990;SDS011;13779;-33.886;151.198;2023-03-23T00:49:30;10.63;;;7.03;;
25990;SDS011;13779;-33.886;151.198;2023-03-23T00:52:01;13.55;;;6.88;;
25990;SDS011;13779;-33.886;151.198;2023-03-23T00:54:30;12.15;;;7.20;;
25990;SDS011;13779;-33.886;151.198;2023-03-23T00:57:00;16.20;;;8.02;;
25990;SDS011;13779;-33.886;151.198;2023-03-23T00:59:29;22.15;;;8.10;;
25990;SDS011;13779;-33.886;151.198;2023-03-23T01:01:57;12.77;;;7.82;;
25990;SDS011;13779;-33.886;151.198;2023-03-23T01:04:26;18.88;;;8.38;;
25990;SDS011;13779;-33.886;151.198;2023-03-23T01:06:57;16.92;;;8.48;;
25990;SDS011;13779;-33.886;151.198;2023-03-23T01:09:27;19.42;;;8.25;;
25990;SDS011;13779;-33.886;151.198;2023-03-23T01:11:55;22.40;;;9.63;;
25990;SDS011;13779;-33.886;151.198;2023-03-23T01:14:23;15.98;;;7.72;;
25990;SDS011;13779;-33.886;151.198;2023-03-23T01:16:52;20.65;;;9.73;;
25990;SDS011;13779;-33.886;151.198;2023-03-23T01:19:21;14.50;;;7.18;;
25990;SDS011;13779;-33.886;151.198;2023-03-23T01:21:49;17.85;;;7.28;;
25990;SDS011;13779;-33.886;151.198;2023-03-23T01:24:18;16.55;;;7.57;;
25990;SDS011;13779;-33.886;151.198;2023-03-23T01:26:47;17.88;;;8.30;;
25990;SDS011;13779;-33.886;151.198;2023-03-23T01:29:16;12.88;;;6.53;;
25990;SDS011;13779;-33.886;151.198;2023-03-23T01:31:44;11.68;;;6.40;;
25990;SDS011;13779;-33.886;151.198;2023-03-23T01:34:13;18.75;;;6.63;;
25990;SDS011;13779;-33.886;151.198;2023-03-23T01:36:41;14.63;;;5.88;;
25990;SDS011;13779;-33.886;151.198;2023-03-23T01:39:10;11.88;;;5.97;;
25990;SDS011;13779;-33.886;151.198;2023-03-23T01:41:38;14.30;;;5.63;;
25990;SDS011;13779;-33.886;151.198;2023-03-23T01:46:45;12.48;;;5.40;;
25990;SDS011;13779;-33.886;151.198;2023-03-23T01:49:15;8.82;;;5.20;;
25990;SDS011;13779;-33.886;151.198;2023-03-23T01:51:58;10.93;;;6.20;;
25990;SDS011;13779;-33.886;151.198;2023-03-23T01:54:33;12.32;;;4.72;;
25990;SDS011;13779;-33.886;151.198;2023-03-23T01:57:09;14.88;;;6.18;;
25990;SDS011;13779;-33.886;151.198;2023-03-23T01:59:50;9.30;;;5.38;;
25990;SDS011;13779;-33.886;151.198;2023-03-23T02:02:22;9.95;;;5.43;;
25990;SDS011;13779;-33.886;151.198;2023-03-23T02:04:55;11.60;;;5.43;;
25990;SDS011;13779;-33.886;151.198;2023-03-23T02:07:28;14.18;;;6.00;;
25990;SDS011;13779;-33.886;151.198;2023-03-23T02:09:58;10.40;;;5.82;;
25990;SDS011;13779;-33.886;151.198;2023-03-23T02:12:27;12.27;;;5.88;;
25990;SDS011;13779;-33.886;151.198;2023-03-23T02:14:55;14.00;;;6.13;;
25990;SDS011;13779;-33.886;151.198;2023-03-23T02:20:17;13.15;;;5.72;;
25990;SDS011;13779;-33.886;151.198;2023-03-23T02:23:13;8.95;;;5.57;;
25990;SDS011;13779;-33.886;151.198;2023-03-23T02:26:01;12.70;;;6.05;;
25990;SDS011;13779;-33.886;151.198;2023-03-23T02:29:02;11.80;;;5.28;;
25990;SDS011;13779;-33.886;151.198;2023-03-23T02:37:29;11.13;;;5.53;;
25990;SDS011;13779;-33.886;151.198;2023-03-23T02:40:02;9.35;;;5.22;;
25990;SDS011;13779;-33.886;151.198;2023-03-23T02:42:38;9.57;;;5.40;;
25990;SDS011;13779;-33.886;151.198;2023-03-23T02:45:10;10.05;;;5.82;;
25990;SDS011;13779;-33.886;151.198;2023-03-23T02:47:41;7.40;;;5.78;;
25990;SDS011;13779;-33.886;151.198;2023-03-23T02:50:11;13.55;;;6.00;;
25990;SDS011;13779;-33.886;151.198;2023-03-23T02:52:43;15.25;;;6.18;;
25990;SDS011;13779;-33.886;151.198;2023-03-23T02:55:12;10.52;;;5.43;;
25990;SDS011;13779;-33.886;151.198;2023-03-23T02:57:42;12.82;;;6.38;;
25990;SDS011;13779;-33.886;151.198;2023-03-23T03:00:12;14.07;;;5.95;;
25990;SDS011;13779;-33.886;151.198;2023-03-23T03:02:44;12.70;;;6.07;;
25990;SDS011;13779;-33.886;151.198;2023-03-23T03:05:26;11.93;;;5.80;;
25990;SDS011;13779;-33.886;151.198;2023-03-23T03:10:52;16.98;;;7.38;;
25990;SDS011;13779;-33.886;151.198;2023-03-23T03:16:33;13.07;;;5.07;;
25990;SDS011;13779;-33.886;151.198;2023-03-23T03:19:17;10.30;;;5.97;;
25990;SDS011;13779;-33.886;151.198;2023-03-23T03:21:59;15.35;;;6.22;;
25990;SDS011;13779;-33.886;151.198;2023-03-23T03:24:29;9.02;;;5.95;;
25990;SDS011;13779;-33.886;151.198;2023-03-23T03:26:59;9.35;;;4.90;;
25990;SDS011;13779;-33.886;151.198;2023-03-23T03:29:34;7.38;;;4.78;;
25990;SDS011;13779;-33.886;151.198;2023-03-23T03:32:11;8.30;;;4.90;;
25990;SDS011;13779;-33.886;151.198;2023-03-23T03:34:43;9.57;;;4.82;;
25990;SDS011;13779;-33.886;151.198;2023-03-23T03:37:11;14.38;;;5.18;;
25990;SDS011;13779;-33.886;151.198;2023-03-23T03:39:41;14.55;;;4.75;;
25990;SDS011;13779;-33.886;151.198;2023-03-23T03:42:10;12.18;;;6.05;;
25990;SDS011;13779;-33.886;151.198;2023-03-23T03:44:38;11.23;;;5.65;;
25990;SDS011;13779;-33.886;151.198;2023-03-23T03:47:07;9.20;;;4.63;;
25990;SDS011;13779;-33.886;151.198;2023-03-23T03:49:35;15.35;;;6.07;;
25990;SDS011;13779;-33.886;151.198;2023-03-23T03:52:04;11.13;;;6.10;;
25990;SDS011;13779;-33.886;151.198;2023-03-23T03:54:32;13.48;;;5.43;;
25990;SDS011;13779;-33.886;151.198;2023-03-23T03:57:01;15.02;;;5.53;;
25990;SDS011;13779;-33.886;151.198;2023-03-23T03:59:35;12.52;;;5.07;;
25990;SDS011;13779;-33.886;151.198;2023-03-23T04:02:04;15.40;;;6.32;;
25990;SDS011;13779;-33.886;151.198;2023-03-23T04:04:32;11.85;;;6.25;;
25990;SDS011;13779;-33.886;151.198;2023-03-23T04:07:01;14.25;;;5.60;;
25990;SDS011;13779;-33.886;151.198;2023-03-23T04:09:31;9.32;;;5.13;;
25990;SDS011;13779;-33.886;151.198;2023-03-23T04:11:59;8.73;;;5.45;;
25990;SDS011;13779;-33.886;151.198;2023-03-23T04:14:28;14.55;;;5.45;;
25990;SDS011;13779;-33.886;151.198;2023-03-23T04:16:57;13.93;;;5.57;;
25990;SDS011;13779;-33.886;151.198;2023-03-23T04:19:25;11.25;;;5.30;;
25990;SDS011;13779;-33.886;151.198;2023-03-23T04:21:54;13.52;;;5.90;;
25990;SDS011;13779;-33.886;151.198;2023-03-23T04:24:24;13.68;;;5.55;;
25990;SDS011;13779;-33.886;151.198;2023-03-23T04:26:54;16.15;;;5.63;;
25990;SDS011;13779;-33.886;151.198;2023-03-23T04:29:23;12.73;;;5.45;;
25990;SDS011;13779;-33.886;151.198;2023-03-23T04:31:51;11.38;;;5.30;;
25990;SDS011;13779;-33.886;151.198;2023-03-23T04:34:22;11.15;;;4.97;;
25990;SDS011;13779;-33.886;151.198;2023-03-23T04:36:51;11.18;;;4.90;;
25990;SDS011;13779;-33.886;151.198;2023-03-23T04:39:20;15.57;;;5.20;;
25990;SDS011;13779;-33.886;151.198;2023-03-23T04:41:48;11.93;;;5.03;;
25990;SDS011;13779;-33.886;151.198;2023-03-23T04:44:16;12.73;;;4.55;;
25990;SDS011;13779;-33.886;151.198;2023-03-23T04:46:47;10.43;;;4.80;;
25990;SDS011;13779;-33.886;151.198;2023-03-23T04:49:15;10.05;;;4.13;;
25990;SDS011;13779;-33.886;151.198;2023-03-23T04:51:47;10.77;;;4.65;;
25990;SDS011;13779;-33.886;151.198;2023-03-23T04:54:16;12.90;;;4.10;;
25990;SDS011;13779;-33.886;151.198;2023-03-23T04:56:44;8.00;;;3.75;;
25990;SDS011;13779;-33.886;151.198;2023-03-23T04:59:12;12.55;;;4.10;;
25990;SDS011;13779;-33.886;151.198;2023-03-23T05:01:41;7.03;;;4.10;;
25990;SDS011;13779;-33.886;151.198;2023-03-23T05:04:11;7.32;;;3.92;;
25990;SDS011;13779;-33.886;151.198;2023-03-23T05:06:43;12.32;;;3.85;;
25990;SDS011;13779;-33.886;151.198;2023-03-23T05:09:11;11.73;;;3.90;;
25990;SDS011;13779;-33.886;151.198;2023-03-23T05:11:39;10.13;;;3.70;;
25990;SDS011;13779;-33.886;151.198;2023-03-23T05:14:07;7.63;;;3.50;;
25990;SDS011;13779;-33.886;151.198;2023-03-23T05:16:35;8.93;;;3.60;;
25990;SDS011;13779;-33.886;151.198;2023-03-23T05:19:04;10.57;;;3.92;;
25990;SDS011;13779;-33.886;151.198;2023-03-23T05:21:33;9.07;;;3.55;;
25990;SDS011;13779;-33.886;151.198;2023-03-23T05:24:03;5.90;;;3.35;;
25990;SDS011;13779;-33.886;151.198;2023-03-23T05:26:32;6.60;;;3.60;;
25990;SDS011;13779;-33.886;151.198;2023-03-23T05:29:00;8.23;;;3.72;;
25990;SDS011;13779;-33.886;151.198;2023-03-23T05:31:28;8.50;;;3.95;;
25990;SDS011;13779;-33.886;151.198;2023-03-23T05:33:56;7.95;;;3.80;;
25990;SDS011;13779;-33.886;151.198;2023-03-23T05:36:24;8.15;;;3.60;;
25990;SDS011;13779;-33.886;151.198;2023-03-23T05:38:52;10.23;;;4.53;;
25990;SDS011;13779;-33.886;151.198;2023-03-23T05:41:20;7.10;;;3.50;;
25990;SDS011;13779;-33.886;151.198;2023-03-23T05:43:49;5.55;;;3.20;;
25990;SDS011;13779;-33.886;151.198;2023-03-23T05:46:17;10.23;;;3.60;;
25990;SDS011;13779;-33.886;151.198;2023-03-23T05:48:45;9.25;;;4.00;;
25990;SDS011;13779;-33.886;151.198;2023-03-23T05:51:13;10.07;;;3.97;;
25990;SDS011;13779;-33.886;151.198;2023-03-23T05:53:41;14.40;;;3.72;;
25990;SDS011;13779;-33.886;151.198;2023-03-23T05:56:10;14.82;;;3.75;;
25990;SDS011;13779;-33.886;151.198;2023-03-23T05:58:38;9.48;;;3.83;;
25990;SDS011;13779;-33.886;151.198;2023-03-23T06:01:07;7.50;;;3.65;;
25990;SDS011;13779;-33.886;151.198;2023-03-23T06:03:36;6.57;;;2.60;;
25990;SDS011;13779;-33.886;151.198;2023-03-23T06:06:04;4.97;;;2.33;;
25990;SDS011;13779;-33.886;151.198;2023-03-23T06:08:34;5.78;;;2.53;;
25990;SDS011;13779;-33.886;151.198;2023-03-23T06:11:04;6.57;;;2.75;;
25990;SDS011;13779;-33.886;151.198;2023-03-23T06:13:32;6.22;;;3.65;;
25990;SDS011;13779;-33.886;151.198;2023-03-23T06:16:00;8.27;;;3.30;;
25990;SDS011;13779;-33.886;151.198;2023-03-23T06:18:30;7.10;;;3.80;;
25990;SDS011;13779;-33.886;151.198;2023-03-23T06:21:00;9.38;;;3.08;;
25990;SDS011;13779;-33.886;151.198;2023-03-23T06:23:28;13.27;;;3.67;;
25990;SDS011;13779;-33.886;151.198;2023-03-23T06:26:03;15.88;;;4.57;;
25990;SDS011;13779;-33.886;151.198;2023-03-23T06:28:34;14.07;;;4.30;;
25990;SDS011;13779;-33.886;151.198;2023-03-23T06:31:02;10.60;;;4.93;;
25990;SDS011;13779;-33.886;151.198;2023-03-23T06:33:33;14.80;;;4.22;;
25990;SDS011;13779;-33.886;151.198;2023-03-23T06:36:03;10.48;;;4.45;;
25990;SDS011;13779;-33.886;151.198;2023-03-23T06:38:31;13.45;;;4.57;;
25990;SDS011;13779;-33.886;151.198;2023-03-23T06:40:59;8.75;;;4.40;;
25990;SDS011;13779;-33.886;151.198;2023-03-23T06:43:28;12.68;;;4.00;;
25990;SDS011;13779;-33.886;151.198;2023-03-23T06:45:58;10.13;;;5.80;;
25990;SDS011;13779;-33.886;151.198;2023-03-23T06:48:27;12.55;;;4.60;;
25990;SDS011;13779;-33.886;151.198;2023-03-23T06:50:55;9.38;;;3.80;;
25990;SDS011;13779;-33.886;151.198;2023-03-23T06:53:23;13.45;;;3.28;;
25990;SDS011;13779;-33.886;151.198;2023-03-23T06:55:51;14.60;;;3.53;;
25990;SDS011;13779;-33.886;151.198;2023-03-23T06:58:19;8.50;;;3.83;;
25990;SDS011;13779;-33.886;151.198;2023-03-23T07:00:48;13.52;;;4.50;;
25990;SDS011;13779;-33.886;151.198;2023-03-23T07:03:21;14.88;;;4.43;;
25990;SDS011;13779;-33.886;151.198;2023-03-23T07:05:49;15.80;;;5.35;;
25990;SDS011;13779;-33.886;151.198;2023-03-23T07:08:17;13.32;;;4.75;;
25990;SDS011;13779;-33.886;151.198;2023-03-23T07:10:46;16.73;;;5.45;;
25990;SDS011;13779;-33.886;151.198;2023-03-23T07:13:18;12.05;;;4.45;;
25990;SDS011;13779;-33.886;151.198;2023-03-23T07:15:47;12.25;;;4.43;;
25990;SDS011;13779;-33.886;151.198;2023-03-23T07:18:16;11.00;;;4.45;;
25990;SDS011;13779;-33.886;151.198;2023-03-23T07:20:51;12.10;;;4.15;;
25990;SDS011;13779;-33.886;151.198;2023-03-23T07:23:19;9.93;;;4.82;;
25990;SDS011;13779;-33.886;151.198;2023-03-23T07:25:47;11.57;;;4.60;;
25990;SDS011;13779;-33.886;151.198;2023-03-23T07:28:15;16.95;;;5.35;;
25990;SDS011;13779;-33.886;151.198;2023-03-23T07:30:44;10.05;;;4.80;;
25990;SDS011;13779;-33.886;151.198;2023-03-23T07:33:13;10.82;;;5.55;;
25990;SDS011;13779;-33.886;151.198;2023-03-23T07:35:42;10.13;;;5.70;;
25990;SDS011;13779;-33.886;151.198;2023-03-23T07:38:10;15.50;;;6.40;;
25990;SDS011;13779;-33.886;151.198;2023-03-23T07:40:40;12.77;;;5.80;;
25990;SDS011;13779;-33.886;151.198;2023-03-23T07:43:08;9.15;;;4.90;;
25990;SDS011;13779;-33.886;151.198;2023-03-23T07:45:37;10.70;;;5.68;;
25990;SDS011;13779;-33.886;151.198;2023-03-23T07:48:06;14.40;;;4.72;;
25990;SDS011;13779;-33.886;151.198;2023-03-23T07:50:35;14.30;;;5.53;;
25990;SDS011;13779;-33.886;151.198;2023-03-23T07:53:08;11.07;;;4.40;;
25990;SDS011;13779;-33.886;151.198;2023-03-23T07:55:37;16.58;;;5.03;;
25990;SDS011;13779;-33.886;151.198;2023-03-23T07:58:05;14.80;;;4.72;;
25990;SDS011;13779;-33.886;151.198;2023-03-23T08:00:35;14.52;;;4.53;;
25990;SDS011;13779;-33.886;151.198;2023-03-23T08:03:04;10.95;;;4.95;;
25990;SDS011;13779;-33.886;151.198;2023-03-23T08:05:33;15.38;;;5.10;;
25990;SDS011;13779;-33.886;151.198;2023-03-23T08:08:02;19.73;;;5.63;;
25990;SDS011;13779;-33.886;151.198;2023-03-23T08:10:31;14.27;;;5.32;;
25990;SDS011;13779;-33.886;151.198;2023-03-23T08:12:59;15.10;;;5.30;;
25990;SDS011;13779;-33.886;151.198;2023-03-23T08:15:28;11.35;;;5.05;;
25990;SDS011;13779;-33.886;151.198;2023-03-23T08:17:57;10.80;;;5.32;;
25990;SDS011;13779;-33.886;151.198;2023-03-23T08:20:27;15.87;;;5.67;;
25990;SDS011;13779;-33.886;151.198;2023-03-23T08:22:56;15.98;;;5.63;;
25990;SDS011;13779;-33.886;151.198;2023-03-23T08:25:26;10.82;;;5.10;;
25990;SDS011;13779;-33.886;151.198;2023-03-23T08:27:57;12.68;;;5.10;;
25990;SDS011;13779;-33.886;151.198;2023-03-23T08:30:30;12.77;;;5.72;;
25990;SDS011;13779;-33.886;151.198;2023-03-23T08:33:00;12.27;;;4.60;;
25990;SDS011;13779;-33.886;151.198;2023-03-23T08:35:29;11.25;;;4.65;;
25990;SDS011;13779;-33.886;151.198;2023-03-23T08:37:57;9.27;;;4.75;;
25990;SDS011;13779;-33.886;151.198;2023-03-23T08:40:25;8.80;;;4.65;;
25990;SDS011;13779;-33.886;151.198;2023-03-23T08:42:54;14.55;;;4.82;;
25990;SDS011;13779;-33.886;151.198;2023-03-23T08:45:23;8.75;;;4.13;;
25990;SDS011;13779;-33.886;151.198;2023-03-23T08:47:52;9.10;;;4.75;;
25990;SDS011;13779;-33.886;151.198;2023-03-23T08:50:25;12.82;;;5.20;;
25990;SDS011;13779;-33.886;151.198;2023-03-23T08:52:56;13.63;;;5.10;;
25990;SDS011;13779;-33.886;151.198;2023-03-23T08:55:24;12.25;;;4.25;;
25990;SDS011;13779;-33.886;151.198;2023-03-23T08:57:53;10.60;;;4.15;;
25990;SDS011;13779;-33.886;151.198;2023-03-23T09:00:21;14.02;;;4.72;;
25990;SDS011;13779;-33.886;151.198;2023-03-23T09:02:52;11.20;;;4.22;;
25990;SDS011;13779;-33.886;151.198;2023-03-23T09:05:24;13.27;;;5.00;;
25990;SDS011;13779;-33.886;151.198;2023-03-23T09:07:55;11.77;;;5.03;;
25990;SDS011;13779;-33.886;151.198;2023-03-23T09:10:27;10.70;;;5.18;;
25990;SDS011;13779;-33.886;151.198;2023-03-23T09:12:56;11.95;;;5.20;;
25990;SDS011;13779;-33.886;151.198;2023-03-23T09:15:24;12.20;;;5.50;;
25990;SDS011;13779;-33.886;151.198;2023-03-23T09:17:53;12.55;;;5.30;;
25990;SDS011;13779;-33.886;151.198;2023-03-23T09:20:23;11.93;;;4.68;;
25990;SDS011;13779;-33.886;151.198;2023-03-23T09:22:53;11.80;;;3.75;;
25990;SDS011;13779;-33.886;151.198;2023-03-23T09:25:24;9.27;;;3.83;;
25990;SDS011;13779;-33.886;151.198;2023-03-23T09:27:57;4.80;;;3.33;;
25990;SDS011;13779;-33.886;151.198;2023-03-23T09:30:26;7.35;;;4.13;;
25990;SDS011;13779;-33.886;151.198;2023-03-23T09:32:56;6.57;;;3.95;;
25990;SDS011;13779;-33.886;151.198;2023-03-23T09:35:27;7.25;;;2.55;;
25990;SDS011;13779;-33.886;151.198;2023-03-23T09:37:57;6.20;;;2.97;;
25990;SDS011;13779;-33.886;151.198;2023-03-23T09:43:31;5.22;;;2.50;;
25990;SDS011;13779;-33.886;151.198;2023-03-23T09:49:11;12.90;;;8.45;;
25990;SDS011;13779;-33.886;151.198;2023-03-23T09:51:57;14.88;;;11.90;;
25990;SDS011;13779;-33.886;151.198;2023-03-23T09:57:05;5.25;;;3.15;;
25990;SDS011;13779;-33.886;151.198;2023-03-23T10:02:27;5.10;;;2.20;;
25990;SDS011;13779;-33.886;151.198;2023-03-23T10:05:20;5.35;;;2.42;;
25990;SDS011;13779;-33.886;151.198;2023-03-23T10:08:02;5.47;;;2.90;;
25990;SDS011;13779;-33.886;151.198;2023-03-23T10:16:09;4.57;;;2.40;;
25990;SDS011;13779;-33.886;151.198;2023-03-23T10:18:43;2.20;;;1.88;;
25990;SDS011;13779;-33.886;151.198;2023-03-23T10:21:19;6.72;;;2.70;;
25990;SDS011;13779;-33.886;151.198;2023-03-23T10:23:54;8.00;;;2.33;;
25990;SDS011;13779;-33.886;151.198;2023-03-23T10:29:36;3.72;;;2.20;;
25990;SDS011;13779;-33.886;151.198;2023-03-23T10:32:11;5.43;;;2.55;;
25990;SDS011;13779;-33.886;151.198;2023-03-23T10:34:59;6.20;;;1.85;;
25990;SDS011;13779;-33.886;151.198;2023-03-23T10:37:38;3.42;;;2.08;;
25990;SDS011;13779;-33.886;151.198;2023-03-23T10:40:16;3.10;;;1.60;;
25990;SDS011;13779;-33.886;151.198;2023-03-23T10:42:47;3.17;;;2.10;;
25990;SDS011;13779;-33.886;151.198;2023-03-23T10:45:26;5.07;;;2.13;;
25990;SDS011;13779;-33.886;151.198;2023-03-23T10:50:44;2.85;;;1.83;;
25990;SDS011;13779;-33.886;151.198;2023-03-23T10:53:18;5.28;;;2.42;;
25990;SDS011;13779;-33.886;151.198;2023-03-23T10:55:54;3.40;;;2.40;;
25990;SDS011;13779;-33.886;151.198;2023-03-23T10:58:23;7.93;;;2.58;;
25990;SDS011;13779;-33.886;151.198;2023-03-23T11:00:56;2.70;;;2.00;;
25990;SDS011;13779;-33.886;151.198;2023-03-23T11:03:35;4.03;;;2.28;;
25990;SDS011;13779;-33.886;151.198;2023-03-23T11:06:22;3.13;;;2.28;;
25990;SDS011;13779;-33.886;151.198;2023-03-23T11:11:28;3.72;;;2.00;;
25990;SDS011;13779;-33.886;151.198;2023-03-23T11:14:15;5.60;;;2.20;;
25990;SDS011;13779;-33.886;151.198;2023-03-23T11:16:52;4.65;;;2.15;;
25990;SDS011;13779;-33.886;151.198;2023-03-23T11:19:26;2.67;;;2.10;;
25990;SDS011;13779;-33.886;151.198;2023-03-23T11:24:40;4.53;;;2.45;;
25990;SDS011;13779;-33.886;151.198;2023-03-23T11:27:10;6.88;;;2.65;;
25990;SDS011;13779;-33.886;151.198;2023-03-23T11:29:45;9.45;;;6.28;;
25990;SDS011;13779;-33.886;151.198;2023-03-23T11:32:35;6.55;;;2.97;;
25990;SDS011;13779;-33.886;151.198;2023-03-23T11:35:05;5.75;;;2.50;;
25990;SDS011;13779;-33.886;151.198;2023-03-23T11:37:42;4.10;;;2.70;;
25990;SDS011;13779;-33.886;151.198;2023-03-23T11:42:46;6.13;;;2.77;;
25990;SDS011;13779;-33.886;151.198;2023-03-23T11:45:31;3.38;;;2.30;;
25990;SDS011;13779;-33.886;151.198;2023-03-23T11:51:17;4.32;;;2.25;;
25990;SDS011;13779;-33.886;151.198;2023-03-23T11:56:55;4.47;;;2.90;;
25990;SDS011;13779;-33.886;151.198;2023-03-23T11:59:31;4.78;;;2.50;;
25990;SDS011;13779;-33.886;151.198;2023-03-23T12:05:06;3.58;;;2.70;;
25990;SDS011;13779;-33.886;151.198;2023-03-23T12:07:56;6.07;;;3.08;;
25990;SDS011;13779;-33.886;151.198;2023-03-23T12:13:06;5.35;;;3.20;;
25990;SDS011;13779;-33.886;151.198;2023-03-23T12:20:59;5.22;;;3.65;;
25990;SDS011;13779;-33.886;151.198;2023-03-23T12:26:17;7.68;;;4.80;;
25990;SDS011;13779;-33.886;151.198;2023-03-23T12:29:04;8.00;;;4.93;;
25990;SDS011;13779;-33.886;151.198;2023-03-23T12:31:54;8.30;;;5.22;;
25990;SDS011;13779;-33.886;151.198;2023-03-23T12:34:34;6.55;;;4.45;;
25990;SDS011;13779;-33.886;151.198;2023-03-23T12:46:27;9.02;;;4.97;;
25990;SDS011;13779;-33.886;151.198;2023-03-23T12:49:17;8.05;;;4.80;;
25990;SDS011;13779;-33.886;151.198;2023-03-23T12:51:57;7.07;;;4.45;;
25990;SDS011;13779;-33.886;151.198;2023-03-23T12:54:53;7.28;;;4.43;;
25990;SDS011;13779;-33.886;151.198;2023-03-23T12:57:43;9.90;;;4.90;;
25990;SDS011;13779;-33.886;151.198;2023-03-23T13:05:59;10.23;;;5.10;;
25990;SDS011;13779;-33.886;151.198;2023-03-23T13:08:36;10.90;;;5.50;;
25990;SDS011;13779;-33.886;151.198;2023-03-23T13:11:18;7.78;;;5.40;;
25990;SDS011;13779;-33.886;151.198;2023-03-23T13:16:37;7.75;;;5.28;;
25990;SDS011;13779;-33.886;151.198;2023-03-23T13:22:06;8.48;;;5.80;;
25990;SDS011;13779;-33.886;151.198;2023-03-23T13:24:54;8.70;;;5.60;;
25990;SDS011;13779;-33.886;151.198;2023-03-23T13:27:24;9.85;;;5.78;;
25990;SDS011;13779;-33.886;151.198;2023-03-23T13:29:54;8.68;;;6.30;;
25990;SDS011;13779;-33.886;151.198;2023-03-23T13:32:37;10.15;;;6.85;;
25990;SDS011;13779;-33.886;151.198;2023-03-23T13:35:17;9.05;;;6.40;;
25990;SDS011;13779;-33.886;151.198;2023-03-23T13:37:49;12.03;;;6.53;;
25990;SDS011;13779;-33.886;151.198;2023-03-23T13:42:58;11.35;;;6.30;;
25990;SDS011;13779;-33.886;151.198;2023-03-23T13:48:18;9.40;;;6.05;;
25990;SDS011;13779;-33.886;151.198;2023-03-23T13:50:56;10.85;;;5.35;;
25990;SDS011;13779;-33.886;151.198;2023-03-23T13:56:06;7.65;;;5.60;;
25990;SDS011;13779;-33.886;151.198;2023-03-23T13:58:44;9.55;;;5.82;;
25990;SDS011;13779;-33.886;151.198;2023-03-23T14:01:32;9.95;;;5.78;;
25990;SDS011;13779;-33.886;151.198;2023-03-23T14:06:35;7.68;;;5.72;;
25990;SDS011;13779;-33.886;151.198;2023-03-23T14:09:49;13.23;;;5.80;;
25990;SDS011;13779;-33.886;151.198;2023-03-23T14:12:05;11.65;;;5.35;;
25990;SDS011;13779;-33.886;151.198;2023-03-23T14:14:51;10.43;;;5.18;;
25990;SDS011;13779;-33.886;151.198;2023-03-23T14:17:39;9.98;;;5.72;;
25990;SDS011;13779;-33.886;151.198;2023-03-23T14:22:59;8.68;;;4.90;;
25990;SDS011;13779;-33.886;151.198;2023-03-23T14:25:29;8.20;;;4.75;;
25990;SDS011;13779;-33.886;151.198;2023-03-23T14:27:58;7.85;;;4.38;;
25990;SDS011;13779;-33.886;151.198;2023-03-23T14:30:27;6.78;;;4.72;;
25990;SDS011;13779;-33.886;151.198;2023-03-23T14:33:03;8.40;;;4.72;;
25990;SDS011;13779;-33.886;151.198;2023-03-23T14:35:35;10.57;;;5.13;;
25990;SDS011;13779;-33.886;151.198;2023-03-23T14:38:06;7.72;;;4.35;;
25990;SDS011;13779;-33.886;151.198;2023-03-23T14:40:47;7.13;;;4.53;;
25990;SDS011;13779;-33.886;151.198;2023-03-23T14:43:16;6.57;;;4.28;;
25990;SDS011;13779;-33.886;151.198;2023-03-23T14:45:49;5.95;;;4.38;;
25990;SDS011;13779;-33.886;151.198;2023-03-23T14:48:21;9.38;;;4.28;;
25990;SDS011;13779;-33.886;151.198;2023-03-23T14:50:56;5.28;;;3.97;;
25990;SDS011;13779;-33.886;151.198;2023-03-23T14:53:32;6.88;;;3.70;;
25990;SDS011;13779;-33.886;151.198;2023-03-23T14:56:13;8.05;;;4.32;;
25990;SDS011;13779;-33.886;151.198;2023-03-23T14:58:51;8.05;;;4.50;;
25990;SDS011;13779;-33.886;151.198;2023-03-23T15:01:27;10.05;;;5.03;;
25990;SDS011;13779;-33.886;151.198;2023-03-23T15:06:30;8.23;;;4.78;;
25990;SDS011;13779;-33.886;151.198;2023-03-23T15:09:04;7.75;;;4.60;;
25990;SDS011;13779;-33.886;151.198;2023-03-23T15:11:50;10.15;;;5.15;;
25990;SDS011;13779;-33.886;151.198;2023-03-23T15:14:37;10.23;;;5.35;;
25990;SDS011;13779;-33.886;151.198;2023-03-23T15:17:25;7.97;;;5.72;;
25990;SDS011;13779;-33.886;151.198;2023-03-23T15:20:06;9.75;;;4.88;;
25990;SDS011;13779;-33.886;151.198;2023-03-23T15:22:44;7.45;;;4.63;;
25990;SDS011;13779;-33.886;151.198;2023-03-23T15:25:33;8.68;;;4.75;;
25990;SDS011;13779;-33.886;151.198;2023-03-23T15:28:12;6.40;;;4.80;;
25990;SDS011;13779;-33.886;151.198;2023-03-23T15:30:50;8.20;;;5.00;;
25990;SDS011;13779;-33.886;151.198;2023-03-23T15:33:20;6.97;;;4.60;;
25990;SDS011;13779;-33.886;151.198;2023-03-23T15:35:54;7.30;;;4.90;;
25990;SDS011;13779;-33.886;151.198;2023-03-23T15:38:29;6.82;;;4.90;;
25990;SDS011;13779;-33.886;151.198;2023-03-23T15:41:00;11.57;;;4.68;;
25990;SDS011;13779;-33.886;151.198;2023-03-23T15:43:34;6.90;;;4.50;;
25990;SDS011;13779;-33.886;151.198;2023-03-23T15:48:48;7.85;;;4.25;;
25990;SDS011;13779;-33.886;151.198;2023-03-23T15:51:29;7.63;;;4.28;;
25990;SDS011;13779;-33.886;151.198;2023-03-23T15:53:58;8.93;;;4.18;;
25990;SDS011;13779;-33.886;151.198;2023-03-23T15:56:27;5.88;;;4.15;;
25990;SDS011;13779;-33.886;151.198;2023-03-23T15:58:57;7.85;;;4.03;;
25990;SDS011;13779;-33.886;151.198;2023-03-23T16:01:29;5.22;;;3.90;;
25990;SDS011;13779;-33.886;151.198;2023-03-23T16:04:07;7.53;;;4.85;;
25990;SDS011;13779;-33.886;151.198;2023-03-23T16:06:41;5.30;;;4.35;;
25990;SDS011;13779;-33.886;151.198;2023-03-23T16:09:13;5.43;;;3.73;;
25990;SDS011;13779;-33.886;151.198;2023-03-23T16:11:45;7.97;;;4.20;;
25990;SDS011;13779;-33.886;151.198;2023-03-23T16:14:15;6.82;;;3.85;;
25990;SDS011;13779;-33.886;151.198;2023-03-23T16:16:46;9.82;;;4.07;;
25990;SDS011;13779;-33.886;151.198;2023-03-23T16:19:20;6.95;;;4.00;;